Pagrindinis puslapis
METAR-TAF:

METAR-TAF

Oro uostai :

Kiana, Aliaska, Jungtinės Amerikos Valstijos

platuma: 66-59N, ilguma: 160-26W, Aukštis: 46 m

Dabartinis oras

Ataskaita buvo paskelbta 45 minutes, ne 17:56 UTC
Vėjas 5 kt iš Rytų
Temperatūra -22°C
Drėgmė 64%
Slėgis 1016 hPa
Matomumas: 16.1 km
Apsiniaukę ne aukštis 10000 ft

METAR: PAIK 161756Z AUTO 09005KT 10SM OVC100 M22/M27 A3001 RMK AO2 SLP168 T12171272 11217 21239 55000 FZRANO

Laikas: 09:41 (18:41 UTC)


TAF: trūkstamas

Orai ataskaitas ir orų prognozės (METAR, TAF).

turimą stotys yra geltonos ir raudonos taškus žemėlapyje.

Perkelti pele per norėdami pamatyti stoties vardą.

Tada spustelėkite, norėdami matyti oro stebėjimo ir prognozės.

Norėdami pakeisti žemėlapį: spustelėkite ant žalios mygtukų su juodo kryžiaus žemyn,; žalią mygtuką su brūkšneliu, jei norite nutolinti; arba žalių rodyklių gretimoms žemėlapius.


METAR-TAF: